createdAt,value
2022-12-04T00:01:46.966Z,8.07
2022-12-04T00:04:18.256Z,10.68
2022-12-04T00:06:51.703Z,6.65
2022-12-04T00:09:26.204Z,5.82
2022-12-04T00:11:57.198Z,8.95
2022-12-04T00:14:28.515Z,5.13
2022-12-04T00:16:59.560Z,7.82
2022-12-04T00:19:30.569Z,7.47
2022-12-04T00:22:01.566Z,7.60
2022-12-04T00:24:32.343Z,6.50
2022-12-04T00:27:04.213Z,5.82
2022-12-04T00:32:05.927Z,6.38
2022-12-04T00:34:36.940Z,6.22
2022-12-04T00:37:07.917Z,6.60
2022-12-04T00:39:38.924Z,6.30
2022-12-04T00:42:10.574Z,5.32
2022-12-04T00:44:41.491Z,6.90
2022-12-04T00:47:12.249Z,6.30
2022-12-04T00:49:43.152Z,5.47
2022-12-04T00:52:14.135Z,5.97
2022-12-04T00:54:45.347Z,7.15
2022-12-04T00:57:16.361Z,7.60
2022-12-04T00:59:47.306Z,6.85
2022-12-04T01:02:18.109Z,6.55
2022-12-04T01:04:49.323Z,5.90
2022-12-04T01:07:20.355Z,5.70
2022-12-04T01:09:51.649Z,7.25
2022-12-04T01:12:22.642Z,6.53
2022-12-04T01:14:53.794Z,8.02
2022-12-04T01:17:24.817Z,7.35
2022-12-04T01:19:55.861Z,7.38
2022-12-04T01:22:27.042Z,8.98
2022-12-04T01:24:58.909Z,9.15
2022-12-04T01:27:29.605Z,8.40
2022-12-04T01:30:00.433Z,7.80
2022-12-04T01:32:33.365Z,9.13
2022-12-04T01:35:04.189Z,6.68
2022-12-04T01:37:35.222Z,8.10
2022-12-04T01:40:07.519Z,7.93
2022-12-04T01:42:39.587Z,8.20
2022-12-04T01:45:42.309Z,6.63
2022-12-04T01:48:33.633Z,9.35
2022-12-04T01:51:39.574Z,9.45
2022-12-04T01:54:17.597Z,7.32
2022-12-04T01:56:57.604Z,7.72
2022-12-04T01:59:31.487Z,7.15
2022-12-04T02:02:08.974Z,6.72
2022-12-04T02:04:41.666Z,7.22
2022-12-04T02:07:13.402Z,12.18
2022-12-04T02:09:44.837Z,9.13
2022-12-04T02:12:23.251Z,8.77
2022-12-04T02:15:40.014Z,7.40
2022-12-04T02:18:29.309Z,8.35
2022-12-04T02:21:05.894Z,8.18
2022-12-04T02:24:02.024Z,7.93
2022-12-04T02:27:09.035Z,8.38
2022-12-04T02:29:58.822Z,7.15
2022-12-04T02:32:43.007Z,10.60
2022-12-04T02:35:13.988Z,8.65
2022-12-04T02:38:09.620Z,11.32
2022-12-04T02:40:45.243Z,7.28
2022-12-04T02:43:17.822Z,10.55
2022-12-04T02:45:55.551Z,10.40
2022-12-04T02:48:27.834Z,8.85
2022-12-04T02:51:01.232Z,8.90
2022-12-04T02:53:38.199Z,9.98
2022-12-04T02:56:13.615Z,7.78
2022-12-04T02:59:13.817Z,8.10
2022-12-04T03:01:46.903Z,11.20
2022-12-04T03:04:24.580Z,7.55
2022-12-04T03:06:59.937Z,11.15
2022-12-04T03:09:39.681Z,9.00
2022-12-04T03:12:31.228Z,8.50
2022-12-04T03:15:13.207Z,6.38
2022-12-04T03:17:53.318Z,8.48
2022-12-04T03:20:26.127Z,6.53
2022-12-04T03:23:04.614Z,7.90
2022-12-04T03:25:42.933Z,9.85
2022-12-04T03:28:23.207Z,7.53
2022-12-04T03:30:59.657Z,7.38
2022-12-04T03:33:43.775Z,8.80
2022-12-04T03:36:51.618Z,8.07
2022-12-04T03:39:37.120Z,6.18
2022-12-04T03:42:18.947Z,7.45
2022-12-04T03:45:13.279Z,7.72
2022-12-04T03:47:48.422Z,7.25
2022-12-04T03:50:36.475Z,7.60
2022-12-04T03:53:10.967Z,8.30
2022-12-04T03:55:58.636Z,8.15
2022-12-04T03:58:32.609Z,7.82
2022-12-04T04:01:05.560Z,9.02
2022-12-04T04:03:39.564Z,8.75
2022-12-04T04:06:14.948Z,8.45
2022-12-04T04:08:48.026Z,8.23
2022-12-04T04:11:45.764Z,11.90
2022-12-04T04:14:57.304Z,9.10
2022-12-04T04:17:49.653Z,10.15
2022-12-04T04:20:50.244Z,11.20
2022-12-04T04:23:42.001Z,8.65
2022-12-04T04:26:14.199Z,9.23
2022-12-04T04:28:46.260Z,6.97
2022-12-04T04:31:41.339Z,8.48
2022-12-04T04:34:24.745Z,11.52
2022-12-04T04:37:03.594Z,7.60
2022-12-04T04:39:51.575Z,8.40
2022-12-04T04:42:33.296Z,8.32
2022-12-04T04:45:33.849Z,10.40
2022-12-04T04:48:06.352Z,11.05
2022-12-04T04:50:37.875Z,9.52
2022-12-04T04:55:42.019Z,13.38
2022-12-04T04:58:19.155Z,7.32
2022-12-04T05:01:11.041Z,9.52
2022-12-04T05:06:12.755Z,10.88
2022-12-04T05:08:43.585Z,10.05
2022-12-04T05:11:18.610Z,9.25
2022-12-04T05:13:49.737Z,13.13
2022-12-04T05:16:20.701Z,9.68
2022-12-04T05:19:10.281Z,11.25
2022-12-04T05:21:42.981Z,11.52
2022-12-04T05:24:14.425Z,9.65
2022-12-04T05:26:45.347Z,9.55
2022-12-04T05:29:16.140Z,11.00
2022-12-04T05:31:47.413Z,8.30
2022-12-04T05:34:18.441Z,10.65
2022-12-04T05:36:49.268Z,9.80
2022-12-04T05:39:20.559Z,10.57
2022-12-04T05:41:51.327Z,12.80
2022-12-04T05:44:22.315Z,11.07
2022-12-04T05:46:53.676Z,14.27
2022-12-04T05:49:24.789Z,10.00
2022-12-04T05:51:56.061Z,10.45
2022-12-04T05:54:27.260Z,10.43
2022-12-04T05:56:58.485Z,10.40
2022-12-04T05:59:29.639Z,12.73
2022-12-04T06:02:00.835Z,15.13
2022-12-04T06:04:31.764Z,12.93
2022-12-04T06:07:02.487Z,11.88
2022-12-04T06:09:33.610Z,8.27
2022-12-04T06:12:04.642Z,14.73
2022-12-04T06:14:39.530Z,11.93
2022-12-04T06:17:10.921Z,11.75
2022-12-04T06:19:42.284Z,10.63
2022-12-04T06:22:13.193Z,9.23
2022-12-04T06:24:45.078Z,10.60
2022-12-04T06:27:31.198Z,11.00
2022-12-04T06:30:02.227Z,10.05
2022-12-04T06:32:34.402Z,9.75
2022-12-04T06:35:05.713Z,8.68
2022-12-04T06:37:36.653Z,10.45
2022-12-04T06:40:08.386Z,15.55
2022-12-04T06:42:39.312Z,11.50
2022-12-04T06:45:10.924Z,10.70
2022-12-04T06:47:41.601Z,11.68
2022-12-04T06:50:12.870Z,10.93
2022-12-04T06:52:43.789Z,12.60
2022-12-04T06:55:14.755Z,11.27
2022-12-04T06:57:45.697Z,14.00
2022-12-04T07:00:17.196Z,12.93
2022-12-04T07:02:48.141Z,13.80
2022-12-04T07:05:19.153Z,12.65
2022-12-04T07:07:49.962Z,9.97
2022-12-04T07:10:20.861Z,13.00
2022-12-04T07:12:51.791Z,12.93
2022-12-04T07:15:22.695Z,10.25
2022-12-04T07:17:53.424Z,11.80
2022-12-04T07:20:24.410Z,9.23
2022-12-04T07:22:55.743Z,14.43
2022-12-04T07:25:27.342Z,11.10
2022-12-04T07:27:58.573Z,12.18
2022-12-04T07:30:29.344Z,7.40
2022-12-04T07:33:00.100Z,14.52
2022-12-04T07:35:31.117Z,11.38
2022-12-04T07:38:02.071Z,8.38
2022-12-04T07:40:33.213Z,11.83
2022-12-04T07:43:04.007Z,12.83
2022-12-04T07:45:35.362Z,10.63
2022-12-04T07:48:06.472Z,15.95
2022-12-04T07:50:37.417Z,11.23
2022-12-04T07:53:08.480Z,10.23
2022-12-04T07:55:39.484Z,10.73
2022-12-04T07:58:10.720Z,11.15
2022-12-04T08:00:41.870Z,11.75
2022-12-04T08:03:12.775Z,11.15
2022-12-04T08:05:43.786Z,8.40
2022-12-04T08:08:15.085Z,8.68
2022-12-04T08:10:46.220Z,12.98
2022-12-04T08:13:16.983Z,12.30
2022-12-04T08:15:47.995Z,11.27
2022-12-04T08:18:19.119Z,8.27
2022-12-04T08:20:50.800Z,9.75
2022-12-04T08:25:52.625Z,7.72
2022-12-04T08:28:23.418Z,10.05
2022-12-04T08:30:54.373Z,8.13
2022-12-04T08:33:25.694Z,12.00
2022-12-04T08:35:57.110Z,11.98
2022-12-04T08:38:28.208Z,9.03
2022-12-04T08:41:02.757Z,12.43
2022-12-04T08:43:33.950Z,10.23
2022-12-04T08:46:07.859Z,9.23
2022-12-04T08:48:39.041Z,9.65
2022-12-04T08:51:15.619Z,11.63
2022-12-04T08:53:47.063Z,8.70
2022-12-04T08:56:17.953Z,8.40
2022-12-04T08:58:48.732Z,9.30
2022-12-04T09:01:19.752Z,12.05
2022-12-04T09:03:50.587Z,9.30
2022-12-04T09:06:21.663Z,11.05
2022-12-04T09:08:57.632Z,8.90
2022-12-04T09:11:29.950Z,10.93
2022-12-04T09:14:00.999Z,9.27
2022-12-04T09:16:32.315Z,13.32
2022-12-04T09:19:03.474Z,9.10
2022-12-04T09:21:34.523Z,10.63
2022-12-04T09:24:05.867Z,10.07
2022-12-04T09:26:37.461Z,7.80
2022-12-04T09:29:09.169Z,10.25
2022-12-04T09:31:40.405Z,8.02
2022-12-04T09:34:11.193Z,10.43
2022-12-04T09:36:42.541Z,10.40
2022-12-04T09:39:13.596Z,5.80
2022-12-04T09:41:50.785Z,9.57
2022-12-04T09:44:56.501Z,9.55
2022-12-04T09:47:40.794Z,7.43
2022-12-04T09:50:25.631Z,9.98
2022-12-04T09:53:09.017Z,7.90
2022-12-04T09:55:47.943Z,8.45
2022-12-04T09:58:25.709Z,11.07
2022-12-04T10:00:57.307Z,7.93
2022-12-04T10:03:30.863Z,7.22
2022-12-04T10:06:37.354Z,5.63
2022-12-04T10:09:17.571Z,8.73
2022-12-04T10:12:16.597Z,11.38
2022-12-04T10:14:56.939Z,9.43
2022-12-04T10:17:51.254Z,7.95
2022-12-04T10:21:14.641Z,8.13
2022-12-04T10:24:01.537Z,8.93
2022-12-04T10:26:38.011Z,9.93
2022-12-04T10:29:14.837Z,7.63
2022-12-04T10:31:47.163Z,9.77
2022-12-04T10:34:27.707Z,7.75
2022-12-04T10:37:03.930Z,9.70
2022-12-04T10:40:24.237Z,8.93
2022-12-04T10:43:20.982Z,8.48
2022-12-04T10:45:51.762Z,6.47
2022-12-04T10:48:28.286Z,10.20
2022-12-04T10:50:59.489Z,9.05
2022-12-04T10:53:34.274Z,7.35
2022-12-04T10:56:24.676Z,7.28
2022-12-04T10:58:59.552Z,4.10
2022-12-04T11:01:35.314Z,4.75
2022-12-04T11:04:11.734Z,9.07
2022-12-04T11:06:42.650Z,7.55
2022-12-04T11:09:24.323Z,6.68
2022-12-04T11:11:55.467Z,6.65
2022-12-04T11:14:26.643Z,6.50
2022-12-04T11:17:08.487Z,6.72
2022-12-04T11:19:39.451Z,11.50
2022-12-04T11:22:17.400Z,6.80
2022-12-04T11:24:58.429Z,7.15
2022-12-04T11:27:34.920Z,7.85
2022-12-04T11:30:12.899Z,7.45
2022-12-04T11:32:43.814Z,7.82
2022-12-04T11:35:28.669Z,6.93
2022-12-04T11:38:15.331Z,5.90
2022-12-04T11:41:24.032Z,6.40
2022-12-04T11:43:59.617Z,8.98
2022-12-04T11:46:33.681Z,5.65
2022-12-04T11:49:05.408Z,5.90
2022-12-04T11:51:59.797Z,6.68
2022-12-04T11:55:20.347Z,6.95
2022-12-04T11:58:13.183Z,8.48
2022-12-04T12:01:07.054Z,6.38
2022-12-04T12:03:46.255Z,6.05
2022-12-04T12:06:21.509Z,6.78
2022-12-04T12:08:55.525Z,5.78
2022-12-04T12:11:26.414Z,6.82
2022-12-04T12:14:26.659Z,7.45
2022-12-04T12:17:00.990Z,6.18
2022-12-04T12:20:02.892Z,7.22
2022-12-04T12:22:52.082Z,6.22
2022-12-04T12:25:48.809Z,5.72
2022-12-04T12:28:45.898Z,7.05
2022-12-04T12:31:26.414Z,9.00
2022-12-04T12:34:01.253Z,7.57
2022-12-04T12:36:39.943Z,6.93
2022-12-04T12:39:22.987Z,7.80
2022-12-04T12:41:59.592Z,6.80
2022-12-04T12:44:45.128Z,7.38
2022-12-04T12:47:22.844Z,5.65
2022-12-04T12:50:07.445Z,5.40
2022-12-04T12:52:50.283Z,6.65
2022-12-04T12:55:35.585Z,6.75
2022-12-04T12:58:37.119Z,5.15
2022-12-04T13:02:04.839Z,7.15
2022-12-04T13:04:44.026Z,8.35
2022-12-04T13:07:22.413Z,8.60
2022-12-04T13:10:05.196Z,5.53
2022-12-04T13:12:55.307Z,8.57
2022-12-04T13:15:33.340Z,5.82
2022-12-04T13:18:04.840Z,7.22
2022-12-04T13:20:41.397Z,7.72
2022-12-04T13:23:30.825Z,6.43
2022-12-04T13:26:10.902Z,7.10
2022-12-04T13:28:59.929Z,7.05
2022-12-04T13:31:37.438Z,4.32
2022-12-04T13:34:26.591Z,7.00
2022-12-04T13:37:05.661Z,5.70
2022-12-04T13:39:53.408Z,4.82
2022-12-04T13:42:27.524Z,9.15
2022-12-04T13:45:00.357Z,4.68
2022-12-04T13:47:35.685Z,7.55
2022-12-04T13:50:20.385Z,4.95
2022-12-04T13:52:51.280Z,4.88
2022-12-04T13:55:29.795Z,5.13
2022-12-04T13:58:20.552Z,6.65
2022-12-04T14:01:25.118Z,7.03
2022-12-04T14:03:58.845Z,6.00
2022-12-04T14:06:44.820Z,5.30
2022-12-04T14:09:28.504Z,4.15
2022-12-04T14:12:02.906Z,7.53
2022-12-04T14:15:07.267Z,4.65
2022-12-04T14:17:40.523Z,5.45
2022-12-04T14:20:27.224Z,6.00
2022-12-04T14:23:08.375Z,5.30
2022-12-04T14:25:42.136Z,5.57
2022-12-04T14:28:41.904Z,6.18
2022-12-04T14:31:16.062Z,5.68
2022-12-04T14:33:53.831Z,9.13
2022-12-04T14:36:30.710Z,6.18
2022-12-04T14:39:09.989Z,5.32
2022-12-04T14:41:41.169Z,7.13
2022-12-04T14:44:32.241Z,9.43
2022-12-04T14:47:15.549Z,8.40
2022-12-04T14:50:00.898Z,4.05
2022-12-04T14:53:15.484Z,6.88
2022-12-04T14:56:07.674Z,8.73
2022-12-04T14:58:40.545Z,8.98
2022-12-04T15:01:35.696Z,8.05
2022-12-04T15:04:36.781Z,8.82
2022-12-04T15:07:07.821Z,8.07
2022-12-04T15:09:57.146Z,7.85
2022-12-04T15:12:37.970Z,5.45
2022-12-04T15:15:19.051Z,7.43
2022-12-04T15:18:16.288Z,7.63
2022-12-04T15:20:53.438Z,5.70
2022-12-04T15:23:30.517Z,6.05
2022-12-04T15:26:05.771Z,4.38
2022-12-04T15:28:59.175Z,7.80
2022-12-04T15:31:33.924Z,6.13
2022-12-04T15:34:17.619Z,3.38
2022-12-04T15:37:21.472Z,7.80
2022-12-04T15:39:52.855Z,2.80
2022-12-04T15:42:28.596Z,5.72
2022-12-04T15:45:04.552Z,4.18
2022-12-04T15:47:55.845Z,7.72
2022-12-04T15:50:28.995Z,6.90
2022-12-04T15:53:16.319Z,4.60
2022-12-04T15:55:54.254Z,6.47
2022-12-04T15:58:57.169Z,4.47
2022-12-04T16:01:28.041Z,5.47
2022-12-04T16:03:59.189Z,7.68
2022-12-04T16:06:32.535Z,5.25
2022-12-04T16:09:20.287Z,7.38
2022-12-04T16:12:03.595Z,6.90
2022-12-04T16:14:34.337Z,7.95
2022-12-04T16:17:06.520Z,5.13
2022-12-04T16:19:39.664Z,6.25
2022-12-04T16:22:20.486Z,6.55
2022-12-04T16:24:52.071Z,4.63
2022-12-04T16:27:25.306Z,6.35
2022-12-04T16:29:56.406Z,5.03
2022-12-04T16:32:34.605Z,2.72
2022-12-04T16:35:06.340Z,5.68
2022-12-04T16:37:37.158Z,4.53
2022-12-04T16:40:08.916Z,4.68
2022-12-04T16:42:39.892Z,4.63
2022-12-04T16:45:35.234Z,3.13
2022-12-04T16:48:06.523Z,4.22
2022-12-04T16:50:37.555Z,6.80
2022-12-04T16:53:08.589Z,5.97
2022-12-04T16:55:41.304Z,3.90
2022-12-04T16:58:12.268Z,4.63
2022-12-04T17:00:45.273Z,6.77
2022-12-04T17:03:25.759Z,5.75
2022-12-04T17:05:57.063Z,4.47
2022-12-04T17:08:28.808Z,5.97
2022-12-04T17:10:59.996Z,6.57
2022-12-04T17:13:31.297Z,3.65
2022-12-04T17:16:02.219Z,4.83
2022-12-04T17:18:33.166Z,5.30
2022-12-04T17:21:09.557Z,4.18
2022-12-04T17:23:40.886Z,5.53
2022-12-04T17:26:14.508Z,6.70
2022-12-04T17:28:45.696Z,6.47
2022-12-04T17:31:22.024Z,6.85
2022-12-04T17:33:53.155Z,7.53
2022-12-04T17:36:27.196Z,6.10
2022-12-04T17:39:00.210Z,6.85
2022-12-04T17:41:31.538Z,5.18
2022-12-04T17:44:03.166Z,5.47
2022-12-04T17:46:34.284Z,4.45
2022-12-04T17:49:07.268Z,7.05
2022-12-04T17:51:38.589Z,7.05
2022-12-04T17:54:10.177Z,4.38
2022-12-04T17:56:46.053Z,7.80
2022-12-04T17:59:19.342Z,6.70
2022-12-04T18:01:52.129Z,7.90
2022-12-04T18:04:23.644Z,6.10
2022-12-04T18:06:54.643Z,6.32
2022-12-04T18:09:25.890Z,7.05
2022-12-04T18:11:59.910Z,11.05
2022-12-04T18:14:31.975Z,6.65
2022-12-04T18:19:33.618Z,5.55
2022-12-04T18:22:04.356Z,6.40
2022-12-04T18:24:35.493Z,5.97
2022-12-04T18:27:06.945Z,7.95
2022-12-04T18:32:08.906Z,4.75
2022-12-04T18:34:39.806Z,7.80
2022-12-04T18:37:11.950Z,7.18
2022-12-04T18:39:43.213Z,8.13
2022-12-04T18:42:13.963Z,5.27
2022-12-04T18:44:44.917Z,3.45
2022-12-04T18:47:15.706Z,6.32
2022-12-04T18:49:48.494Z,6.57
2022-12-04T18:52:19.381Z,6.55
2022-12-04T18:54:50.487Z,5.22
2022-12-04T18:57:21.688Z,5.32
2022-12-04T18:59:52.602Z,6.20
2022-12-04T19:02:23.495Z,6.40
2022-12-04T19:04:54.332Z,6.20
2022-12-04T19:07:25.554Z,6.93
2022-12-04T19:10:12.511Z,7.50
2022-12-04T19:12:43.598Z,5.90
2022-12-04T19:15:14.737Z,5.85
2022-12-04T19:17:45.858Z,6.13
2022-12-04T19:20:19.666Z,9.90
2022-12-04T19:22:50.932Z,7.47
2022-12-04T19:25:21.623Z,6.53
2022-12-04T19:27:52.890Z,7.30
2022-12-04T19:32:55.078Z,5.00
2022-12-04T19:35:26.170Z,9.25
2022-12-04T19:37:58.125Z,7.28
2022-12-04T19:40:28.871Z,4.40
2022-12-04T19:43:02.815Z,3.75
2022-12-04T19:45:34.355Z,8.18
2022-12-04T19:48:05.328Z,4.25
2022-12-04T19:50:36.341Z,5.53
2022-12-04T19:53:07.164Z,5.27
2022-12-04T19:55:39.150Z,6.07
2022-12-04T20:00:40.269Z,7.43
2022-12-04T20:03:11.280Z,6.55
2022-12-04T20:05:42.224Z,7.63
2022-12-04T20:10:42.114Z,5.82
2022-12-04T20:13:13.967Z,4.82
2022-12-04T20:15:44.988Z,6.07
2022-12-04T20:18:15.883Z,5.15
2022-12-04T20:20:49.243Z,7.53
2022-12-04T20:23:20.116Z,5.88
2022-12-04T20:25:51.428Z,8.52
2022-12-04T20:28:22.937Z,3.85
2022-12-04T20:30:53.940Z,4.07
2022-12-04T20:33:24.709Z,7.10
2022-12-04T20:35:57.024Z,4.63
2022-12-04T20:38:28.483Z,4.43
2022-12-04T20:40:59.213Z,5.97
2022-12-04T20:43:29.952Z,6.00
2022-12-04T20:46:01.277Z,3.13
2022-12-04T20:48:32.538Z,3.63
2022-12-04T20:51:04.274Z,5.03
2022-12-04T20:56:05.254Z,7.97
2022-12-04T20:58:35.973Z,7.82
2022-12-04T21:01:12.309Z,10.35
2022-12-04T21:03:43.979Z,7.25
2022-12-04T21:08:55.319Z,10.98
2022-12-04T21:11:33.937Z,12.27
2022-12-04T21:14:24.973Z,11.05
2022-12-04T21:16:55.846Z,11.05
2022-12-04T21:19:27.550Z,18.35
2022-12-04T21:24:30.129Z,4.72
2022-12-04T21:27:01.306Z,4.88
2022-12-04T21:29:32.746Z,6.05
2022-12-04T21:32:03.929Z,3.70
2022-12-04T21:34:35.252Z,9.23
2022-12-04T21:37:06.360Z,10.90
2022-12-04T21:39:38.498Z,6.60
2022-12-04T21:42:27.078Z,3.25
2022-12-04T21:45:01.995Z,7.78
2022-12-04T21:47:35.039Z,5.85
2022-12-04T21:50:07.661Z,6.72
2022-12-04T21:52:38.573Z,5.13
2022-12-04T21:55:09.795Z,7.43
2022-12-04T21:57:40.777Z,8.05
2022-12-04T22:00:12.342Z,3.95
2022-12-04T22:02:43.095Z,4.15
2022-12-04T22:05:14.349Z,4.35
2022-12-04T22:07:45.481Z,6.63
2022-12-04T22:10:16.564Z,4.55
2022-12-04T22:12:49.912Z,2.45
2022-12-04T22:15:21.241Z,5.00
2022-12-04T22:17:52.192Z,4.57
2022-12-04T22:20:25.052Z,7.55
2022-12-04T22:22:56.168Z,6.10
2022-12-04T22:25:27.254Z,7.18
2022-12-04T22:27:59.022Z,7.72
2022-12-04T22:33:00.392Z,5.07
2022-12-04T22:35:31.197Z,3.23
2022-12-04T22:38:02.291Z,3.90
2022-12-04T22:40:33.859Z,4.72
2022-12-04T22:43:04.645Z,6.00
2022-12-04T22:45:35.903Z,5.60
2022-12-04T22:48:07.266Z,14.90
2022-12-04T22:50:38.396Z,6.38
2022-12-04T22:53:09.302Z,5.18
2022-12-04T22:55:40.518Z,4.95
2022-12-04T22:58:11.446Z,4.10
2022-12-04T23:00:43.339Z,6.88
2022-12-04T23:03:14.411Z,5.47
2022-12-04T23:05:45.354Z,3.85
2022-12-04T23:08:16.595Z,3.90
2022-12-04T23:10:47.927Z,4.63
2022-12-04T23:13:18.908Z,3.45
2022-12-04T23:15:51.860Z,6.45
2022-12-04T23:18:22.786Z,6.03
2022-12-04T23:20:53.585Z,2.97
2022-12-04T23:23:24.547Z,5.18
2022-12-04T23:25:55.755Z,2.80
2022-12-04T23:28:26.509Z,4.57
2022-12-04T23:30:57.193Z,3.43
2022-12-04T23:33:28.652Z,2.15
2022-12-04T23:36:01.486Z,3.63
2022-12-04T23:38:32.846Z,3.15
2022-12-04T23:41:06.084Z,3.97
2022-12-04T23:43:37.469Z,3.60
2022-12-04T23:46:11.289Z,2.78
2022-12-04T23:48:44.364Z,3.28
2022-12-04T23:51:17.866Z,3.40
2022-12-04T23:53:49.445Z,3.40
2022-12-04T23:56:28.272Z,6.57
2022-12-04T23:58:59.964Z,4.22
